Bellingham, Washington
Current Conditions -  °F | °C
As of 6:53 PM on Thursday 18 Dec 2014 (Local Time) from KBLI Reporting Station
Overcast Overcast  
Wind Chill: 52°   Ceiling: 8000
Heat Index: 52°   Visibility: 10mi
Dew Point: 42°   Wind: 15mph
Humidity: 69%   Direction: 130°SE
Pressure: 29.69"   Gusts: 25mph
Location:  48.75°N, 122.47°W
Report Text: KBLI 190253Z AUTO 13013G22KT 10SM BKN080 OVC095 11/06 A2969 RMK AO2 RAE51 SLP063 P0000 60000 T01110056 56021
Loading
Personal Weather Stations






























Interactive Weather Map New forecast layout! Learn more

10-Day Weather Forecast

Advertisements
Track Severe Weather on mobile